sensor_id;sensor_type;location;lat;lon;timestamp;temperature;humidity
6672;DHT22;3372;48.690;12.362;2022-09-11T00:00:39;17.10;53.70
6672;DHT22;3372;48.690;12.362;2022-09-11T00:03:05;17.20;53.60
6672;DHT22;3372;48.690;12.362;2022-09-11T00:05:32;17.20;53.40
6672;DHT22;3372;48.690;12.362;2022-09-11T00:08:01;17.00;54.30
6672;DHT22;3372;48.690;12.362;2022-09-11T00:10:27;17.00;54.70
6672;DHT22;3372;48.690;12.362;2022-09-11T00:12:52;17.10;54.40
6672;DHT22;3372;48.690;12.362;2022-09-11T00:15:18;17.10;53.70
6672;DHT22;3372;48.690;12.362;2022-09-11T00:17:43;17.10;54.10
6672;DHT22;3372;48.690;12.362;2022-09-11T00:20:09;17.00;54.50
6672;DHT22;3372;48.690;12.362;2022-09-11T00:22:34;17.10;54.50
6672;DHT22;3372;48.690;12.362;2022-09-11T00:25:00;17.00;54.60
6672;DHT22;3372;48.690;12.362;2022-09-11T00:27:26;17.10;54.40
6672;DHT22;3372;48.690;12.362;2022-09-11T00:29:51;17.10;54.10
6672;DHT22;3372;48.690;12.362;2022-09-11T00:32:18;17.10;54.60
6672;DHT22;3372;48.690;12.362;2022-09-11T00:34:44;17.10;54.50
6672;DHT22;3372;48.690;12.362;2022-09-11T00:37:11;17.10;54.50
6672;DHT22;3372;48.690;12.362;2022-09-11T00:39:36;17.10;54.70
6672;DHT22;3372;48.690;12.362;2022-09-11T00:42:03;17.20;54.10
6672;DHT22;3372;48.690;12.362;2022-09-11T00:47:00;17.20;55.10
6672;DHT22;3372;48.690;12.362;2022-09-11T00:49:37;17.10;54.90
6672;DHT22;3372;48.690;12.362;2022-09-11T00:52:08;17.10;55.20
6672;DHT22;3372;48.690;12.362;2022-09-11T00:54:42;17.10;55.30
6672;DHT22;3372;48.690;12.362;2022-09-11T00:57:10;17.00;55.30
6672;DHT22;3372;48.690;12.362;2022-09-11T00:59:39;17.00;55.60
6672;DHT22;3372;48.690;12.362;2022-09-11T01:02:07;17.00;55.50
6672;DHT22;3372;48.690;12.362;2022-09-11T01:04:36;16.90;55.60
6672;DHT22;3372;48.690;12.362;2022-09-11T01:07:02;16.90;55.70
6672;DHT22;3372;48.690;12.362;2022-09-11T01:09:29;16.90;55.90
6672;DHT22;3372;48.690;12.362;2022-09-11T01:14:50;16.90;55.70
6672;DHT22;3372;48.690;12.362;2022-09-11T01:20:24;16.90;56.30
6672;DHT22;3372;48.690;12.362;2022-09-11T01:28:29;16.80;55.60
6672;DHT22;3372;48.690;12.362;2022-09-11T01:31:01;16.80;56.60
6672;DHT22;3372;48.690;12.362;2022-09-11T01:33:57;16.70;56.90
6672;DHT22;3372;48.690;12.362;2022-09-11T01:36:31;16.70;57.10
6672;DHT22;3372;48.690;12.362;2022-09-11T01:39:01;16.80;57.00
6672;DHT22;3372;48.690;12.362;2022-09-11T01:44:00;16.90;55.60
6672;DHT22;3372;48.690;12.362;2022-09-11T01:46:30;16.70;55.60
6672;DHT22;3372;48.690;12.362;2022-09-11T01:49:24;16.60;56.60
6672;DHT22;3372;48.690;12.362;2022-09-11T01:51:55;16.80;55.90
6672;DHT22;3372;48.690;12.362;2022-09-11T01:54:26;16.80;55.40
6672;DHT22;3372;48.690;12.362;2022-09-11T01:57:03;16.90;55.10
6672;DHT22;3372;48.690;12.362;2022-09-11T01:59:38;16.80;55.60
6672;DHT22;3372;48.690;12.362;2022-09-11T02:02:07;16.80;55.50
6672;DHT22;3372;48.690;12.362;2022-09-11T02:04:49;16.90;55.40
6672;DHT22;3372;48.690;12.362;2022-09-11T02:07:20;16.70;55.50
6672;DHT22;3372;48.690;12.362;2022-09-11T02:09:54;16.80;55.10
6672;DHT22;3372;48.690;12.362;2022-09-11T02:12:26;16.70;55.50
6672;DHT22;3372;48.690;12.362;2022-09-11T02:14:53;16.70;55.50
6672;DHT22;3372;48.690;12.362;2022-09-11T02:19:58;16.70;55.50
6672;DHT22;3372;48.690;12.362;2022-09-11T02:22:24;16.80;55.40
6672;DHT22;3372;48.690;12.362;2022-09-11T02:24:50;16.70;55.50
6672;DHT22;3372;48.690;12.362;2022-09-11T02:27:20;16.70;54.60
6672;DHT22;3372;48.690;12.362;2022-09-11T02:29:47;16.70;54.90
6672;DHT22;3372;48.690;12.362;2022-09-11T02:32:13;16.60;55.40
6672;DHT22;3372;48.690;12.362;2022-09-11T02:34:40;16.60;55.40
6672;DHT22;3372;48.690;12.362;2022-09-11T02:40:10;16.60;55.40
6672;DHT22;3372;48.690;12.362;2022-09-11T02:51:17;16.50;55.30
6672;DHT22;3372;48.690;12.362;2022-09-11T02:56:03;16.60;55.40
6672;DHT22;3372;48.690;12.362;2022-09-11T02:58:36;16.60;55.40
6672;DHT22;3372;48.690;12.362;2022-09-11T03:01:06;16.60;55.10
6672;DHT22;3372;48.690;12.362;2022-09-11T03:03:37;16.50;55.30
6672;DHT22;3372;48.690;12.362;2022-09-11T03:06:03;16.50;55.40
6672;DHT22;3372;48.690;12.362;2022-09-11T03:08:28;16.60;55.40
6672;DHT22;3372;48.690;12.362;2022-09-11T03:10:55;16.60;55.30
6672;DHT22;3372;48.690;12.362;2022-09-11T03:13:21;16.60;54.80
6672;DHT22;3372;48.690;12.362;2022-09-11T03:15:46;16.60;55.30
6672;DHT22;3372;48.690;12.362;2022-09-11T03:18:13;16.60;55.40
6672;DHT22;3372;48.690;12.362;2022-09-11T03:20:46;16.60;54.80
6672;DHT22;3372;48.690;12.362;2022-09-11T03:23:12;16.70;54.90
6672;DHT22;3372;48.690;12.362;2022-09-11T03:25:39;16.60;54.10
6672;DHT22;3372;48.690;12.362;2022-09-11T03:28:04;16.70;54.60
6672;DHT22;3372;48.690;12.362;2022-09-11T03:30:31;16.60;55.30
6672;DHT22;3372;48.690;12.362;2022-09-11T03:32:57;16.50;54.70
6672;DHT22;3372;48.690;12.362;2022-09-11T03:35:23;16.50;54.80
6672;DHT22;3372;48.690;12.362;2022-09-11T03:37:49;16.60;54.60
6672;DHT22;3372;48.690;12.362;2022-09-11T03:40:15;16.60;54.30
6672;DHT22;3372;48.690;12.362;2022-09-11T03:42:40;16.70;54.00
6672;DHT22;3372;48.690;12.362;2022-09-11T03:45:06;16.40;55.20
6672;DHT22;3372;48.690;12.362;2022-09-11T03:47:32;16.50;56.00
6672;DHT22;3372;48.690;12.362;2022-09-11T03:49:58;16.50;54.60
6672;DHT22;3372;48.690;12.362;2022-09-11T03:52:23;16.50;55.30
6672;DHT22;3372;48.690;12.362;2022-09-11T03:54:49;16.50;55.30
6672;DHT22;3372;48.690;12.362;2022-09-11T03:57:14;16.60;54.80
6672;DHT22;3372;48.690;12.362;2022-09-11T03:59:40;16.50;55.30
6672;DHT22;3372;48.690;12.362;2022-09-11T04:02:06;16.60;54.60
6672;DHT22;3372;48.690;12.362;2022-09-11T04:04:31;16.70;54.80
6672;DHT22;3372;48.690;12.362;2022-09-11T04:06:57;16.60;54.50
6672;DHT22;3372;48.690;12.362;2022-09-11T04:09:23;16.60;54.70
6672;DHT22;3372;48.690;12.362;2022-09-11T04:11:49;16.50;55.00
6672;DHT22;3372;48.690;12.362;2022-09-11T04:14:14;16.30;55.90
6672;DHT22;3372;48.690;12.362;2022-09-11T04:16:40;16.40;55.20
6672;DHT22;3372;48.690;12.362;2022-09-11T04:19:06;16.40;55.20
6672;DHT22;3372;48.690;12.362;2022-09-11T04:21:32;16.60;54.80
6672;DHT22;3372;48.690;12.362;2022-09-11T04:23:59;16.60;54.70
6672;DHT22;3372;48.690;12.362;2022-09-11T04:26:27;16.50;54.80
6672;DHT22;3372;48.690;12.362;2022-09-11T04:28:53;16.50;55.30
6672;DHT22;3372;48.690;12.362;2022-09-11T04:31:19;16.60;54.60
6672;DHT22;3372;48.690;12.362;2022-09-11T04:33:46;16.50;55.20
6672;DHT22;3372;48.690;12.362;2022-09-11T04:36:14;16.50;55.30
6672;DHT22;3372;48.690;12.362;2022-09-11T04:38:42;16.50;55.30
6672;DHT22;3372;48.690;12.362;2022-09-11T04:41:09;16.50;55.30
6672;DHT22;3372;48.690;12.362;2022-09-11T04:43:36;16.40;55.70
6672;DHT22;3372;48.690;12.362;2022-09-11T04:46:06;16.50;56.20
6672;DHT22;3372;48.690;12.362;2022-09-11T04:48:32;16.20;59.70
6672;DHT22;3372;48.690;12.362;2022-09-11T04:51:00;16.30;59.10
6672;DHT22;3372;48.690;12.362;2022-09-11T04:53:26;16.40;58.80
6672;DHT22;3372;48.690;12.362;2022-09-11T04:56:00;16.10;62.00
6672;DHT22;3372;48.690;12.362;2022-09-11T04:58:26;16.10;63.20
6672;DHT22;3372;48.690;12.362;2022-09-11T05:00:51;16.20;63.50
6672;DHT22;3372;48.690;12.362;2022-09-11T05:03:17;16.30;62.30
6672;DHT22;3372;48.690;12.362;2022-09-11T05:05:42;16.30;63.50
6672;DHT22;3372;48.690;12.362;2022-09-11T05:08:08;16.00;67.20
6672;DHT22;3372;48.690;12.362;2022-09-11T05:10:36;16.00;68.10
6672;DHT22;3372;48.690;12.362;2022-09-11T05:13:03;16.10;68.60
6672;DHT22;3372;48.690;12.362;2022-09-11T05:15:29;16.10;71.10
6672;DHT22;3372;48.690;12.362;2022-09-11T05:17:56;16.10;71.90
6672;DHT22;3372;48.690;12.362;2022-09-11T05:20:22;15.90;75.80
6672;DHT22;3372;48.690;12.362;2022-09-11T05:22:49;16.00;77.10
6672;DHT22;3372;48.690;12.362;2022-09-11T05:25:15;16.00;78.50
6672;DHT22;3372;48.690;12.362;2022-09-11T05:27:42;16.10;78.30
6672;DHT22;3372;48.690;12.362;2022-09-11T05:30:09;16.00;79.40
6672;DHT22;3372;48.690;12.362;2022-09-11T05:32:34;16.00;80.90
6672;DHT22;3372;48.690;12.362;2022-09-11T05:35:00;15.70;87.00
6672;DHT22;3372;48.690;12.362;2022-09-11T05:37:26;15.70;91.60
6672;DHT22;3372;48.690;12.362;2022-09-11T05:39:51;15.70;92.80
6672;DHT22;3372;48.690;12.362;2022-09-11T05:42:17;15.80;93.00
6672;DHT22;3372;48.690;12.362;2022-09-11T05:44:43;15.80;93.00
6672;DHT22;3372;48.690;12.362;2022-09-11T05:47:11;16.00;92.90
6672;DHT22;3372;48.690;12.362;2022-09-11T05:49:38;16.10;92.70
6672;DHT22;3372;48.690;12.362;2022-09-11T05:52:04;16.00;92.90
6672;DHT22;3372;48.690;12.362;2022-09-11T05:54:30;16.00;93.30
6672;DHT22;3372;48.690;12.362;2022-09-11T05:56:55;16.00;94.10
6672;DHT22;3372;48.690;12.362;2022-09-11T05:59:21;15.90;94.90
6672;DHT22;3372;48.690;12.362;2022-09-11T06:01:47;16.00;94.70
6672;DHT22;3372;48.690;12.362;2022-09-11T06:04:12;16.10;94.30
6672;DHT22;3372;48.690;12.362;2022-09-11T06:06:38;16.10;94.40
6672;DHT22;3372;48.690;12.362;2022-09-11T06:09:05;16.10;94.10
6672;DHT22;3372;48.690;12.362;2022-09-11T06:11:31;16.00;94.90
6672;DHT22;3372;48.690;12.362;2022-09-11T06:13:57;16.20;94.70
6672;DHT22;3372;48.690;12.362;2022-09-11T06:16:23;16.10;95.80
6672;DHT22;3372;48.690;12.362;2022-09-11T06:18:50;16.00;96.70
6672;DHT22;3372;48.690;12.362;2022-09-11T06:21:18;15.80;97.80
6672;DHT22;3372;48.690;12.362;2022-09-11T06:23:45;15.80;99.90
6672;DHT22;3372;48.690;12.362;2022-09-11T06:26:13;15.80;99.90
6672;DHT22;3372;48.690;12.362;2022-09-11T06:28:40;15.80;99.90
6672;DHT22;3372;48.690;12.362;2022-09-11T06:31:08;15.90;99.90
6672;DHT22;3372;48.690;12.362;2022-09-11T06:33:37;16.00;99.90
6672;DHT22;3372;48.690;12.362;2022-09-11T06:36:05;15.80;99.90
6672;DHT22;3372;48.690;12.362;2022-09-11T06:38:32;15.80;99.90
6672;DHT22;3372;48.690;12.362;2022-09-11T06:41:00;15.90;99.90
6672;DHT22;3372;48.690;12.362;2022-09-11T06:43:27;15.80;99.90
6672;DHT22;3372;48.690;12.362;2022-09-11T06:45:54;15.90;99.90
6672;DHT22;3372;48.690;12.362;2022-09-11T06:48:20;16.00;99.90
6672;DHT22;3372;48.690;12.362;2022-09-11T06:50:45;15.70;99.90
6672;DHT22;3372;48.690;12.362;2022-09-11T06:53:12;15.80;99.90
6672;DHT22;3372;48.690;12.362;2022-09-11T06:55:39;15.90;99.90
6672;DHT22;3372;48.690;12.362;2022-09-11T06:58:08;15.70;99.90
6672;DHT22;3372;48.690;12.362;2022-09-11T07:00:34;15.90;99.90
6672;DHT22;3372;48.690;12.362;2022-09-11T07:03:02;15.80;99.90
6672;DHT22;3372;48.690;12.362;2022-09-11T07:05:28;16.00;99.90
6672;DHT22;3372;48.690;12.362;2022-09-11T07:07:55;15.90;99.90
6672;DHT22;3372;48.690;12.362;2022-09-11T07:10:21;16.00;99.90
6672;DHT22;3372;48.690;12.362;2022-09-11T07:12:47;15.90;99.90
6672;DHT22;3372;48.690;12.362;2022-09-11T07:15:13;16.00;99.90
6672;DHT22;3372;48.690;12.362;2022-09-11T07:17:38;16.10;99.90
6672;DHT22;3372;48.690;12.362;2022-09-11T07:20:05;16.10;99.90
6672;DHT22;3372;48.690;12.362;2022-09-11T07:22:32;16.10;99.90
6672;DHT22;3372;48.690;12.362;2022-09-11T07:24:59;16.10;99.90
6672;DHT22;3372;48.690;12.362;2022-09-11T07:27:26;16.30;99.90
6672;DHT22;3372;48.690;12.362;2022-09-11T07:29:52;16.40;99.90
6672;DHT22;3372;48.690;12.362;2022-09-11T07:32:17;16.30;99.90
6672;DHT22;3372;48.690;12.362;2022-09-11T07:34:43;16.30;99.90
6672;DHT22;3372;48.690;12.362;2022-09-11T07:37:12;16.20;99.90
6672;DHT22;3372;48.690;12.362;2022-09-11T07:39:38;16.10;99.90
6672;DHT22;3372;48.690;12.362;2022-09-11T07:42:05;16.30;99.90
6672;DHT22;3372;48.690;12.362;2022-09-11T07:44:34;16.30;99.90
6672;DHT22;3372;48.690;12.362;2022-09-11T07:47:00;16.20;99.90
6672;DHT22;3372;48.690;12.362;2022-09-11T07:49:26;16.20;99.90
6672;DHT22;3372;48.690;12.362;2022-09-11T07:51:52;16.30;99.90
6672;DHT22;3372;48.690;12.362;2022-09-11T07:54:19;16.40;99.90
6672;DHT22;3372;48.690;12.362;2022-09-11T07:56:45;16.30;99.90
6672;DHT22;3372;48.690;12.362;2022-09-11T07:59:10;16.40;99.90
6672;DHT22;3372;48.690;12.362;2022-09-11T08:01:36;16.60;99.90
6672;DHT22;3372;48.690;12.362;2022-09-11T08:04:04;16.80;99.90
6672;DHT22;3372;48.690;12.362;2022-09-11T08:06:33;17.00;99.90
6672;DHT22;3372;48.690;12.362;2022-09-11T08:09:02;17.00;99.90
6672;DHT22;3372;48.690;12.362;2022-09-11T08:11:29;17.20;99.90
6672;DHT22;3372;48.690;12.362;2022-09-11T08:13:56;17.30;99.90
6672;DHT22;3372;48.690;12.362;2022-09-11T08:16:24;17.40;99.90
6672;DHT22;3372;48.690;12.362;2022-09-11T08:18:50;17.50;99.90
6672;DHT22;3372;48.690;12.362;2022-09-11T08:21:17;17.60;99.90
6672;DHT22;3372;48.690;12.362;2022-09-11T08:23:44;17.80;99.90
6672;DHT22;3372;48.690;12.362;2022-09-11T08:26:15;17.70;99.90
6672;DHT22;3372;48.690;12.362;2022-09-11T08:28:42;17.60;99.90
6672;DHT22;3372;48.690;12.362;2022-09-11T08:31:09;17.70;99.90
6672;DHT22;3372;48.690;12.362;2022-09-11T08:33:35;17.60;99.90
6672;DHT22;3372;48.690;12.362;2022-09-11T08:36:03;17.60;99.90
6672;DHT22;3372;48.690;12.362;2022-09-11T08:38:29;17.70;99.90
6672;DHT22;3372;48.690;12.362;2022-09-11T08:41:07;18.10;99.90
6672;DHT22;3372;48.690;12.362;2022-09-11T08:43:34;18.20;99.90
6672;DHT22;3372;48.690;12.362;2022-09-11T08:46:06;18.30;99.90
6672;DHT22;3372;48.690;12.362;2022-09-11T08:48:52;17.90;99.90
6672;DHT22;3372;48.690;12.362;2022-09-11T08:51:20;18.00;99.90
6672;DHT22;3372;48.690;12.362;2022-09-11T08:53:46;18.00;99.90
6672;DHT22;3372;48.690;12.362;2022-09-11T08:56:18;17.90;99.90
6672;DHT22;3372;48.690;12.362;2022-09-11T09:01:31;17.90;99.90
6672;DHT22;3372;48.690;12.362;2022-09-11T09:09:52;18.80;99.90
6672;DHT22;3372;48.690;12.362;2022-09-11T09:12:24;18.70;99.90
6672;DHT22;3372;48.690;12.362;2022-09-11T09:15:14;18.70;99.90
6672;DHT22;3372;48.690;12.362;2022-09-11T09:17:54;18.80;99.90
6672;DHT22;3372;48.690;12.362;2022-09-11T09:20:34;18.60;99.90
6672;DHT22;3372;48.690;12.362;2022-09-11T09:23:04;18.70;99.90
6672;DHT22;3372;48.690;12.362;2022-09-11T09:25:35;18.90;99.90
6672;DHT22;3372;48.690;12.362;2022-09-11T09:28:20;18.80;97.90
6672;DHT22;3372;48.690;12.362;2022-09-11T09:30:54;19.10;99.90
6672;DHT22;3372;48.690;12.362;2022-09-11T09:35:53;19.10;99.40
6672;DHT22;3372;48.690;12.362;2022-09-11T09:38:26;18.90;99.70
6672;DHT22;3372;48.690;12.362;2022-09-11T09:46:42;18.40;99.90
6672;DHT22;3372;48.690;12.362;2022-09-11T09:49:10;18.40;99.90
6672;DHT22;3372;48.690;12.362;2022-09-11T09:51:38;18.30;99.90
6672;DHT22;3372;48.690;12.362;2022-09-11T09:54:05;18.40;99.90
6672;DHT22;3372;48.690;12.362;2022-09-11T09:56:32;18.40;99.90
6672;DHT22;3372;48.690;12.362;2022-09-11T10:01:49;18.60;99.90
6672;DHT22;3372;48.690;12.362;2022-09-11T10:06:43;18.70;99.90
6672;DHT22;3372;48.690;12.362;2022-09-11T10:12:01;18.90;99.90
6672;DHT22;3372;48.690;12.362;2022-09-11T10:14:29;19.00;99.90
6672;DHT22;3372;48.690;12.362;2022-09-11T10:16:58;19.00;99.90
6672;DHT22;3372;48.690;12.362;2022-09-11T10:19:39;19.10;99.90
6672;DHT22;3372;48.690;12.362;2022-09-11T10:22:26;19.40;99.90
6672;DHT22;3372;48.690;12.362;2022-09-11T10:30:30;19.80;99.90
6672;DHT22;3372;48.690;12.362;2022-09-11T10:32:57;19.70;99.90
6672;DHT22;3372;48.690;12.362;2022-09-11T10:35:25;19.40;99.60
6672;DHT22;3372;48.690;12.362;2022-09-11T10:40:29;19.30;98.40
6672;DHT22;3372;48.690;12.362;2022-09-11T10:42:55;19.30;99.00
6672;DHT22;3372;48.690;12.362;2022-09-11T10:45:21;19.30;98.20
6672;DHT22;3372;48.690;12.362;2022-09-11T10:47:49;19.30;98.10
6672;DHT22;3372;48.690;12.362;2022-09-11T10:55:18;19.20;98.70
6672;DHT22;3372;48.690;12.362;2022-09-11T10:57:55;19.20;98.50
6672;DHT22;3372;48.690;12.362;2022-09-11T11:00:23;19.40;98.40
6672;DHT22;3372;48.690;12.362;2022-09-11T11:11:17;19.60;94.50
6672;DHT22;3372;48.690;12.362;2022-09-11T11:14:01;19.60;95.30
6672;DHT22;3372;48.690;12.362;2022-09-11T11:37:47;19.70;93.10
6672;DHT22;3372;48.690;12.362;2022-09-11T11:43:08;19.90;92.40
6672;DHT22;3372;48.690;12.362;2022-09-11T11:45:57;20.00;91.30
6672;DHT22;3372;48.690;12.362;2022-09-11T11:48:37;19.70;87.00
6672;DHT22;3372;48.690;12.362;2022-09-11T11:51:17;19.80;90.00
6672;DHT22;3372;48.690;12.362;2022-09-11T11:54:09;19.80;90.10
6672;DHT22;3372;48.690;12.362;2022-09-11T11:56:48;19.60;87.80
6672;DHT22;3372;48.690;12.362;2022-09-11T11:59:26;19.60;87.30
6672;DHT22;3372;48.690;12.362;2022-09-11T12:07:28;19.80;84.00
6672;DHT22;3372;48.690;12.362;2022-09-11T12:09:56;19.90;82.70
6672;DHT22;3372;48.690;12.362;2022-09-11T12:12:27;20.00;83.20
6672;DHT22;3372;48.690;12.362;2022-09-11T12:15:04;20.00;83.10
6672;DHT22;3372;48.690;12.362;2022-09-11T12:17:35;20.10;84.40
6672;DHT22;3372;48.690;12.362;2022-09-11T12:28:24;20.30;80.40
6672;DHT22;3372;48.690;12.362;2022-09-11T12:38:48;20.30;71.80
6672;DHT22;3372;48.690;12.362;2022-09-11T12:41:29;20.40;69.20
6672;DHT22;3372;48.690;12.362;2022-09-11T12:43:56;20.20;65.70
6672;DHT22;3372;48.690;12.362;2022-09-11T12:48:55;20.40;74.60
6672;DHT22;3372;48.690;12.362;2022-09-11T12:51:31;20.40;66.70
6672;DHT22;3372;48.690;12.362;2022-09-11T12:53:59;20.40;66.30
6672;DHT22;3372;48.690;12.362;2022-09-11T12:56:28;20.50;61.10
6672;DHT22;3372;48.690;12.362;2022-09-11T12:59:01;20.40;61.70
6672;DHT22;3372;48.690;12.362;2022-09-11T13:01:31;20.40;65.80
6672;DHT22;3372;48.690;12.362;2022-09-11T13:04:10;20.60;67.80
6672;DHT22;3372;48.690;12.362;2022-09-11T13:06:51;20.70;63.50
6672;DHT22;3372;48.690;12.362;2022-09-11T13:09:27;20.80;61.30
6672;DHT22;3372;48.690;12.362;2022-09-11T13:11:56;21.00;62.10
6672;DHT22;3372;48.690;12.362;2022-09-11T13:16:59;21.20;63.80
6672;DHT22;3372;48.690;12.362;2022-09-11T13:19:33;21.20;58.40
6672;DHT22;3372;48.690;12.362;2022-09-11T13:22:00;21.10;56.50
6672;DHT22;3372;48.690;12.362;2022-09-11T13:24:33;21.00;58.20
6672;DHT22;3372;48.690;12.362;2022-09-11T13:27:23;20.80;56.90
6672;DHT22;3372;48.690;12.362;2022-09-11T13:29:52;20.70;58.10
6672;DHT22;3372;48.690;12.362;2022-09-11T13:32:19;20.80;61.30
6672;DHT22;3372;48.690;12.362;2022-09-11T13:34:49;20.90;61.00
6672;DHT22;3372;48.690;12.362;2022-09-11T13:37:33;21.00;62.60
6672;DHT22;3372;48.690;12.362;2022-09-11T13:40:02;21.00;53.00
6672;DHT22;3372;48.690;12.362;2022-09-11T13:42:29;20.70;54.10
6672;DHT22;3372;48.690;12.362;2022-09-11T13:44:57;20.70;53.60
6672;DHT22;3372;48.690;12.362;2022-09-11T13:47:25;20.50;54.10
6672;DHT22;3372;48.690;12.362;2022-09-11T13:49:54;20.50;56.60
6672;DHT22;3372;48.690;12.362;2022-09-11T13:52:22;20.50;58.20
6672;DHT22;3372;48.690;12.362;2022-09-11T13:54:52;20.50;56.20
6672;DHT22;3372;48.690;12.362;2022-09-11T13:57:23;20.50;57.40
6672;DHT22;3372;48.690;12.362;2022-09-11T13:59:49;20.30;58.80
6672;DHT22;3372;48.690;12.362;2022-09-11T14:07:44;20.30;58.80
6672;DHT22;3372;48.690;12.362;2022-09-11T14:10:30;20.30;59.30
6672;DHT22;3372;48.690;12.362;2022-09-11T14:18:53;20.40;55.60
6672;DHT22;3372;48.690;12.362;2022-09-11T14:23:52;20.40;58.00
6672;DHT22;3372;48.690;12.362;2022-09-11T14:26:21;20.50;56.80
6672;DHT22;3372;48.690;12.362;2022-09-11T14:31:40;20.60;51.20
6672;DHT22;3372;48.690;12.362;2022-09-11T14:34:13;20.70;50.10
6672;DHT22;3372;48.690;12.362;2022-09-11T14:37:04;20.80;49.30
6672;DHT22;3372;48.690;12.362;2022-09-11T14:39:39;20.90;48.40
6672;DHT22;3372;48.690;12.362;2022-09-11T14:42:15;20.90;48.40
6672;DHT22;3372;48.690;12.362;2022-09-11T14:44:42;20.90;46.50
6672;DHT22;3372;48.690;12.362;2022-09-11T14:47:16;20.90;49.20
6672;DHT22;3372;48.690;12.362;2022-09-11T14:49:42;20.90;49.00
6672;DHT22;3372;48.690;12.362;2022-09-11T14:52:12;21.00;50.80
6672;DHT22;3372;48.690;12.362;2022-09-11T14:54:38;21.00;48.30
6672;DHT22;3372;48.690;12.362;2022-09-11T14:57:11;20.90;48.20
6672;DHT22;3372;48.690;12.362;2022-09-11T14:59:37;20.90;49.40
6672;DHT22;3372;48.690;12.362;2022-09-11T15:02:03;20.80;48.60
6672;DHT22;3372;48.690;12.362;2022-09-11T15:04:29;20.80;47.30
6672;DHT22;3372;48.690;12.362;2022-09-11T15:06:56;21.00;49.20
6672;DHT22;3372;48.690;12.362;2022-09-11T15:09:23;21.10;47.20
6672;DHT22;3372;48.690;12.362;2022-09-11T15:11:49;21.00;46.40
6672;DHT22;3372;48.690;12.362;2022-09-11T15:14:18;20.90;46.50
6672;DHT22;3372;48.690;12.362;2022-09-11T15:16:44;20.90;49.00
6672;DHT22;3372;48.690;12.362;2022-09-11T15:19:10;20.80;49.50
6672;DHT22;3372;48.690;12.362;2022-09-11T15:21:36;20.80;48.10
6672;DHT22;3372;48.690;12.362;2022-09-11T15:24:03;21.00;48.20
6672;DHT22;3372;48.690;12.362;2022-09-11T15:26:33;21.00;47.70
6672;DHT22;3372;48.690;12.362;2022-09-11T15:28:59;21.00;46.10
6672;DHT22;3372;48.690;12.362;2022-09-11T15:31:26;21.10;46.90
6672;DHT22;3372;48.690;12.362;2022-09-11T15:33:53;21.00;46.30
6672;DHT22;3372;48.690;12.362;2022-09-11T15:36:19;20.70;49.20
6672;DHT22;3372;48.690;12.362;2022-09-11T15:38:53;20.50;51.40
6672;DHT22;3372;48.690;12.362;2022-09-11T15:41:20;20.10;54.90
6672;DHT22;3372;48.690;12.362;2022-09-11T15:43:50;20.00;55.80
6672;DHT22;3372;48.690;12.362;2022-09-11T15:46:17;19.80;57.50
6672;DHT22;3372;48.690;12.362;2022-09-11T15:48:44;19.40;59.40
6672;DHT22;3372;48.690;12.362;2022-09-11T15:51:13;19.20;64.40
6672;DHT22;3372;48.690;12.362;2022-09-11T15:53:40;19.20;68.70
6672;DHT22;3372;48.690;12.362;2022-09-11T15:56:17;19.20;70.10
6672;DHT22;3372;48.690;12.362;2022-09-11T15:58:44;19.30;71.50
6672;DHT22;3372;48.690;12.362;2022-09-11T16:01:19;19.10;73.30
6672;DHT22;3372;48.690;12.362;2022-09-11T16:03:49;19.00;76.50
6672;DHT22;3372;48.690;12.362;2022-09-11T16:06:15;18.80;79.10
6672;DHT22;3372;48.690;12.362;2022-09-11T16:08:41;18.90;79.00
6672;DHT22;3372;48.690;12.362;2022-09-11T16:11:07;19.20;77.90
6672;DHT22;3372;48.690;12.362;2022-09-11T16:13:36;19.30;76.30
6672;DHT22;3372;48.690;12.362;2022-09-11T16:16:03;19.30;74.30
6672;DHT22;3372;48.690;12.362;2022-09-11T16:18:30;19.40;74.30
6672;DHT22;3372;48.690;12.362;2022-09-11T16:20:56;19.40;73.20
6672;DHT22;3372;48.690;12.362;2022-09-11T16:23:23;19.40;73.30
6672;DHT22;3372;48.690;12.362;2022-09-11T16:25:50;19.40;72.90
6672;DHT22;3372;48.690;12.362;2022-09-11T16:28:16;19.40;74.80
6672;DHT22;3372;48.690;12.362;2022-09-11T16:30:42;19.40;75.30
6672;DHT22;3372;48.690;12.362;2022-09-11T16:33:08;19.40;75.30
6672;DHT22;3372;48.690;12.362;2022-09-11T16:35:37;19.40;75.30
6672;DHT22;3372;48.690;12.362;2022-09-11T16:38:04;19.40;75.60
6672;DHT22;3372;48.690;12.362;2022-09-11T16:40:35;19.40;76.90
6672;DHT22;3372;48.690;12.362;2022-09-11T16:43:02;19.30;77.00
6672;DHT22;3372;48.690;12.362;2022-09-11T16:45:28;19.30;76.90
6672;DHT22;3372;48.690;12.362;2022-09-11T16:47:54;19.30;77.00
6672;DHT22;3372;48.690;12.362;2022-09-11T16:50:21;19.30;77.20
6672;DHT22;3372;48.690;12.362;2022-09-11T16:52:47;19.30;76.50
6672;DHT22;3372;48.690;12.362;2022-09-11T16:55:15;19.40;76.80
6672;DHT22;3372;48.690;12.362;2022-09-11T16:57:41;19.50;76.30
6672;DHT22;3372;48.690;12.362;2022-09-11T17:00:09;19.40;77.10
6672;DHT22;3372;48.690;12.362;2022-09-11T17:02:36;19.30;78.30
6672;DHT22;3372;48.690;12.362;2022-09-11T17:05:04;19.30;77.60
6672;DHT22;3372;48.690;12.362;2022-09-11T17:07:30;19.40;78.30
6672;DHT22;3372;48.690;12.362;2022-09-11T17:09:56;19.30;78.90
6672;DHT22;3372;48.690;12.362;2022-09-11T17:12:22;19.30;79.40
6672;DHT22;3372;48.690;12.362;2022-09-11T17:14:47;19.30;78.40
6672;DHT22;3372;48.690;12.362;2022-09-11T17:17:14;19.20;78.10
6672;DHT22;3372;48.690;12.362;2022-09-11T17:19:40;19.30;78.80
6672;DHT22;3372;48.690;12.362;2022-09-11T17:22:06;19.20;79.30
6672;DHT22;3372;48.690;12.362;2022-09-11T17:24:33;19.20;79.30
6672;DHT22;3372;48.690;12.362;2022-09-11T17:26:59;19.20;80.40
6672;DHT22;3372;48.690;12.362;2022-09-11T17:29:26;19.20;81.40
6672;DHT22;3372;48.690;12.362;2022-09-11T17:31:51;19.10;82.00
6672;DHT22;3372;48.690;12.362;2022-09-11T17:34:17;19.10;81.80
6672;DHT22;3372;48.690;12.362;2022-09-11T17:36:44;19.00;82.40
6672;DHT22;3372;48.690;12.362;2022-09-11T17:39:09;19.10;81.40
6672;DHT22;3372;48.690;12.362;2022-09-11T17:41:35;19.10;81.30
6672;DHT22;3372;48.690;12.362;2022-09-11T17:44:01;19.00;81.80
6672;DHT22;3372;48.690;12.362;2022-09-11T17:46:26;19.10;80.90
6672;DHT22;3372;48.690;12.362;2022-09-11T17:48:52;19.10;81.60
6672;DHT22;3372;48.690;12.362;2022-09-11T17:51:21;19.10;82.70
6672;DHT22;3372;48.690;12.362;2022-09-11T17:53:52;19.10;82.30
6672;DHT22;3372;48.690;12.362;2022-09-11T17:56:21;19.20;82.40
6672;DHT22;3372;48.690;12.362;2022-09-11T17:58:53;19.20;81.10
6672;DHT22;3372;48.690;12.362;2022-09-11T18:01:19;19.10;81.40
6672;DHT22;3372;48.690;12.362;2022-09-11T18:03:49;19.10;81.80
6672;DHT22;3372;48.690;12.362;2022-09-11T18:06:30;19.00;81.60
6672;DHT22;3372;48.690;12.362;2022-09-11T18:08:59;19.10;82.60
6672;DHT22;3372;48.690;12.362;2022-09-11T18:11:29;19.10;81.20
6672;DHT22;3372;48.690;12.362;2022-09-11T18:13:55;19.00;81.70
6672;DHT22;3372;48.690;12.362;2022-09-11T18:16:21;19.00;81.60
6672;DHT22;3372;48.690;12.362;2022-09-11T18:18:47;19.00;82.20
6672;DHT22;3372;48.690;12.362;2022-09-11T18:21:13;19.00;82.10